Flight Track Log - Related Links

Times and Time Zones

All times are in EDT time to prevent confusion due to time zone crossing. See the N871UB flight status page for this flight to view local times or setup timezone preferences in your user account.

Time Position Orientation Groundspeed Altitude Reporting Facility
EDT Latitude Longitude Course Direction KTS MPH feet Rate Location/Type
Tue 07:44:08 PM 33.6000 -111.9333 320° Northwest 155 178 2,300  Level Phoenix TRACON
Tue 07:45:08 PM 33.6333 -111.9667 320° Northwest 166 191 4,200 1,704 Climbing Phoenix TRACON
Tue 07:45:29 PM 33.6369 -111.9781 291° West 164 189 4,600 1,976 Climbing Albuquerque Center
Tue 07:46:30 PM 33.6744 -111.9758 North 174 200 6,900 2,293 Climbing Albuquerque Center
Tue 07:47:32 PM 33.7083 -111.9133 57° Northeast 201 231 9,300 2,195 Climbing Albuquerque Center
Tue 07:48:33 PM 33.7072 -111.8486 91° East 199 229 11,400 1,951 Climbing Albuquerque Center
Tue 07:49:35 PM 33.7044 -111.7853 93° East 194 223 13,300 1,902 Climbing Albuquerque Center
Tue 07:50:36 PM 33.7031 -111.7192 91° East 197 227 15,300 1,854 Climbing Albuquerque Center
Tue 07:51:38 PM 33.7014 -111.6519 92° East 201 231 17,100 1,756 Climbing Albuquerque Center
Tue 07:52:39 PM 33.7000 -111.5831 91° East 205 236 18,900 1,707 Climbing Albuquerque Center
Tue 07:53:41 PM 33.7047 -111.4978 86° East 214 246 20,600 1,659 Climbing Albuquerque Center
Tue 07:54:42 PM 33.7272 -111.4322 68° East 215 247 22,300 1,463 Climbing Albuquerque Center
Tue 07:55:44 PM 33.7469 -111.3639 71° East 217 250 23,600 1,122 Climbing Albuquerque Center
Tue 07:56:45 PM 33.7678 -111.2958 70° East 218 251 24,600 683 Climbing Albuquerque Center
Tue 07:57:47 PM 33.7906 -111.2233 69° East 227 261 25,000 195 Climbing Albuquerque Center
Tue 07:58:48 PM 33.8114 -111.1397 73° East 252 290 25,000  Level Albuquerque Center
Tue 07:59:50 PM 33.8061 -111.0467 94° East 275 316 25,000  Level Albuquerque Center
Tue 08:00:51 PM 33.8047 -110.9364 91° East 276 318 25,000  Level Albuquerque Center
Tue 08:01:53 PM 33.8031 -110.8436 91° East 277 319 25,000  Level Albuquerque Center
Tue 08:02:54 PM 33.8022 -110.7514 91° East 276 318 25,000  Level Albuquerque Center
Tue 08:03:56 PM 33.8089 -110.6619 85° East 271 312 25,000  Level Albuquerque Center
Tue 08:04:57 PM 33.8183 -110.5717 83° East 271 312 25,000  Level Albuquerque Center
Tue 08:05:59 PM 33.8422 -110.4886 71° East 264 304 25,000  Level Albuquerque Center
Tue 08:07:00 PM 33.8650 -110.4031 72° East 268 308 25,000  Level Albuquerque Center
Tue 08:08:02 PM 33.8800 -110.3128 79° East 272 313 25,000  Level Albuquerque Center
Tue 08:09:03 PM 33.9025 -110.2056 76° East 275 316 25,000  Level Albuquerque Center
Tue 08:10:04 PM 33.9200 -110.1175 77° East 275 316 25,000  Level Albuquerque Center
Tue 08:11:06 PM 33.9356 -110.0319 78° East 271 312 25,000  Level Albuquerque Center
Tue 08:12:07 PM 33.9531 -109.9453 76° East 269 310 25,000  Level Albuquerque Center
Tue 08:13:09 PM 33.9681 -109.8589 78° East 267 307 25,000  Level Albuquerque Center
Tue 08:14:11 PM 33.9864 -109.7706 76° East 271 312 25,000  Level Albuquerque Center
Tue 08:15:12 PM 34.0022 -109.6811 78° East 273 314 25,000  Level Albuquerque Center
Tue 08:16:14 PM 34.0092 -109.5733 86° East 271 312 25,000  Level Albuquerque Center
Tue 08:17:15 PM 34.0144 -109.4817 86° East 275 316 25,000  Level Albuquerque Center
Tue 08:18:17 PM 34.0169 -109.3914 88° East 273 314 25,000  Level Albuquerque Center
Tue 08:19:18 PM 34.0197 -109.3000 88° East 273 314 25,000  Level Albuquerque Center
Tue 08:20:20 PM 34.0228 -109.2094 88° East 274 315 25,000  Level Albuquerque Center
Tue 08:21:21 PM 34.0261 -109.1186 87° East 273 314 25,000  Level Albuquerque Center
Tue 08:22:23 PM 34.0317 -109.0092 86° East 274 315 25,000  Level Albuquerque Center
Tue 08:23:24 PM 34.0406 -108.9208 83° East 271 312 25,000  Level Albuquerque Center
Tue 08:24:26 PM 34.0461 -108.8308 86° East 270 311 25,000  Level Albuquerque Center
Tue 08:25:27 PM 34.0508 -108.7408 86° East 271 312 25,000  Level Albuquerque Center
Tue 08:26:29 PM 34.0508 -108.6481 90° East 275 316 25,000  Level Albuquerque Center
Tue 08:27:31 PM 34.0550 -108.5567 87° East 276 318 25,000  Level Albuquerque Center
Tue 08:28:32 PM 34.0647 -108.4672 83° East 275 316 25,000  Level Albuquerque Center
Tue 08:29:34 PM 34.0725 -108.3556 85° East 277 319 25,000  Level Albuquerque Center
Tue 08:30:35 PM 34.0742 -108.2622 89° East 279 321 25,000  Level Albuquerque Center
Tue 08:31:37 PM 34.0736 -108.1692 90° East 279 321 25,000  Level Albuquerque Center
Tue 08:32:38 PM 34.0781 -108.0856 86° East 279 321 25,000  Level Albuquerque Center
Tue 08:33:40 PM 34.0878 -107.9750 84° East 277 319 25,000  Level Albuquerque Center
Tue 08:34:41 PM 34.0908 -107.8822 88° East 276 318 25,000  Level Albuquerque Center
Tue 08:35:43 PM 34.0883 -107.7894 92° East 277 319 25,000  Level Albuquerque Center
Tue 08:36:44 PM 34.0919 -107.6964 87° East 279 321 25,000  Level Albuquerque Center
Tue 08:37:45 PM 34.0939 -107.6028 89° East 279 321 25,000  Level Albuquerque Center
Tue 08:38:47 PM 34.0953 -107.5086 89° East 280 322 25,000  Level Albuquerque Center
Tue 08:39:48 PM 34.0972 -107.4158 89° East 280 322 25,000  Level Albuquerque Center
Tue 08:40:50 PM 34.1344 -107.3422 59° Northeast 265 305 25,000  Level Albuquerque Center
Tue 08:41:51 PM 34.1881 -107.2569 53° Northeast 264 304 25,000  Level Albuquerque Center
Tue 08:42:52 PM 34.2178 -107.1775 66° East 260 299 25,000  Level Albuquerque Center
Tue 08:43:54 PM 34.2511 -107.0994 63° Northeast 261 300 25,000  Level Albuquerque Center
Tue 08:44:55 PM 34.2681 -107.0164 76° East 256 295 25,000  Level Albuquerque Center
Tue 08:45:57 PM 34.2869 -106.9283 75° East 263 303 25,000  Level Albuquerque Center
Tue 08:46:58 PM 34.2983 -106.8394 81° East 268 308 25,000  Level Albuquerque Center
Tue 08:47:59 PM 34.3033 -106.7472 86° East 275 316 25,000  Level Albuquerque Center
Tue 08:49:01 PM 34.3111 -106.6442 85° East 272 313 25,000  Level Albuquerque Center
Tue 08:50:02 PM 34.3172 -106.5525 85° East 274 315 25,000  Level Albuquerque Center
Tue 08:51:04 PM 34.3206 -106.4589 88° East 277 319 25,000  Level Albuquerque Center
Tue 08:52:05 PM 34.3275 -106.3694 85° East 273 314 25,000  Level Albuquerque Center
Tue 08:53:06 PM 34.3372 -106.2811 82° East 268 308 25,000  Level Albuquerque Center
Tue 08:54:08 PM 34.3483 -106.1844 82° East 264 304 25,000  Level Albuquerque Center
Tue 08:55:09 PM 34.3547 -106.0947 85° East 266 306 25,000  Level Albuquerque Center
Tue 08:56:10 PM 34.3642 -106.0044 83° East 266 306 25,000  Level Albuquerque Center
Tue 08:57:12 PM 34.3783 -105.9144 79° East 270 311 25,000  Level Albuquerque Center
Tue 08:58:13 PM 34.4069 -105.8317 67° East 265 305 25,000  Level Albuquerque Center
Tue 08:59:15 PM 34.4242 -105.7403 77° East 272 313 25,000 293 Level Albuquerque Center
Tue 09:00:16 PM 34.4394 -105.6508 78° East 271 312 25,600 244 Climbing Albuquerque Center
Tue 09:01:18 PM 34.4531 -105.5631 79° East 265 305 25,500 -49 Descending Albuquerque Center
Tue 09:02:19 PM 34.4719 -105.4608 77° East 265 305 25,500  Level Albuquerque Center
Tue 09:03:21 PM 34.4828 -105.3711 82° East 266 306 25,500 -98 Level Albuquerque Center
Tue 09:04:22 PM 34.5053 -105.2864 72° East 263 303 25,300 -246 Descending Albuquerque Center
Tue 09:05:23 PM 34.5258 -105.1981 74° East 267 307 25,000 -146 Descending Albuquerque Center
Tue 09:06:25 PM 34.5447 -105.1075 76° East 272 313 25,000  Level Albuquerque Center
Tue 09:07:26 PM 34.5642 -105.0203 75° East 268 308 25,000  Level Albuquerque Center
Tue 09:08:28 PM 34.5822 -104.9333 76° East 265 305 25,000  Level Albuquerque Center
Tue 09:09:29 PM 34.6017 -104.8456 75° East 266 306 25,000  Level Albuquerque Center
Tue 09:10:31 PM 34.6206 -104.7575 75° East 268 308 25,000  Level Albuquerque Center
Tue 09:11:32 PM 34.6397 -104.6706 75° East 267 307 25,000  Level Albuquerque Center
Tue 09:12:33 PM 34.6572 -104.5833 76° East 265 305 25,000  Level Albuquerque Center
Tue 09:13:35 PM 34.6803 -104.4828 74° East 264 304 25,000  Level Albuquerque Center
Tue 09:14:36 PM 34.6992 -104.3958 75° East 264 304 25,000  Level Albuquerque Center
Tue 09:15:38 PM 34.7169 -104.3075 76° East 266 306 25,000  Level Albuquerque Center
Tue 09:16:39 PM 34.7364 -104.2189 75° East 269 310 25,000  Level Albuquerque Center
Tue 09:17:40 PM 34.7558 -104.1303 75° East 270 311 25,000  Level Albuquerque Center
Tue 09:18:42 PM 34.7733 -104.0414 76° East 269 310 25,000  Level Albuquerque Center
Tue 09:19:43 PM 34.7917 -103.9531 76° East 269 310 25,000  Level Albuquerque Center
Tue 09:20:44 PM 34.8108 -103.8653 75° East 268 308 25,000  Level Albuquerque Center
Tue 09:21:46 PM 34.8286 -103.7769 76° East 268 308 25,000  Level Albuquerque Center
Tue 09:22:47 PM 34.8483 -103.6889 75° East 268 308 25,000  Level Albuquerque Center
Tue 09:23:49 PM 34.8647 -103.5997 77° East 268 308 25,000  Level Albuquerque Center
Tue 09:24:50 PM 34.8864 -103.4958 76° East 270 311 25,000 -295 Level Albuquerque Center
Tue 09:25:51 PM 34.9047 -103.4039 76° East 274 315 24,400 -537 Descending Albuquerque Center
Tue 09:26:53 PM 34.9250 -103.3097 75° East 283 326 23,900 -585 Descending Albuquerque Center
Tue 09:27:54 PM 34.9444 -103.2164 76° East 283 326 23,200 -738 Descending Albuquerque Center
Tue 09:28:55 PM 34.9625 -103.1242 77° East 280 322 22,400 -878 Descending Albuquerque Center
Tue 09:29:57 PM 34.9803 -103.0317 77° East 278 320 21,400 -1,073 Descending Albuquerque Center
Tue 09:30:58 PM 34.9994 -102.9339 77° East 290 334 20,200 -1,082 Descending Albuquerque Center
Tue 09:31:59 PM 35.0208 -102.8381 75° East 292 336 19,200 -732 Descending Albuquerque Center
Tue 09:33:01 PM 35.0400 -102.7372 77° East 281 323 18,700 -780 Descending Albuquerque Center
Tue 09:34:02 PM 35.0572 -102.6464 77° East 277 319 17,600 -1,131 Descending Albuquerque Center
Tue 09:35:03 PM 35.0747 -102.5519 77° East 283 326 16,400 -1,171 Descending Albuquerque Center
Tue 09:36:05 PM 35.0922 -102.4583 77° East 284 327 15,200 -1,317 Descending Albuquerque Center
Tue 09:37:06 PM 35.1097 -102.3625 77° East 288 331 13,700 -1,415 Descending Albuquerque Center
Tue 09:38:08 PM 35.1289 -102.2669 76° East 290 334 12,300 -1,366 Descending Albuquerque Center
Tue 09:39:09 PM 35.1383 -102.1686 83° East 291 335 10,900 -1,475 Descending Albuquerque Center
Tue 09:40:10 PM 35.1467 -102.0806 83° East 269 310 9,300 -1,756 Descending Albuquerque Center
Tue 09:41:12 PM 35.1442 -101.9831 92° East 250 288 7,300 -1,659 Descending Albuquerque Center
Tue 09:42:13 PM 35.1286 -101.9092 104° East 237 273 5,900 -984 Descending Albuquerque Center
Tue 09:43:14 PM 35.1178 -101.8492 102° East 228 262 5,300 -590 Descending Albuquerque Center

Login

Don't have an account? Register now (free) for customized features, flight alerts, and more!